createdAt,value
2018-11-12T00:00:15.811Z,99414.00
2018-11-12T00:02:47.732Z,99430.00
2018-11-12T00:05:18.400Z,99428.00
2018-11-12T00:07:47.675Z,99429.00
2018-11-12T00:10:16.861Z,99425.00
2018-11-12T00:12:46.085Z,99428.00
2018-11-12T00:15:15.664Z,99430.00
2018-11-12T00:17:44.840Z,99421.00
2018-11-12T00:20:14.871Z,99411.00
2018-11-12T00:22:44.521Z,99415.00
2018-11-12T00:25:13.678Z,99413.00
2018-11-12T00:27:43.016Z,99414.00
2018-11-12T00:30:16.267Z,99419.00
2018-11-12T00:32:46.345Z,99420.00
2018-11-12T00:35:15.487Z,99420.00
2018-11-12T00:37:45.211Z,99421.00
2018-11-12T00:40:15.552Z,99419.00
2018-11-12T00:42:45.050Z,99419.00
2018-11-12T00:45:14.566Z,99425.00
2018-11-12T00:47:44.025Z,99421.00
2018-11-12T00:50:14.188Z,99420.00
2018-11-12T00:52:43.436Z,99420.00
2018-11-12T00:55:13.915Z,99434.00
2018-11-12T00:57:43.153Z,99457.00
2018-11-12T01:00:19.498Z,99455.00
2018-11-12T01:02:49.773Z,99454.00
2018-11-12T01:05:19.933Z,99451.00
2018-11-12T01:07:49.249Z,99440.00
2018-11-12T01:10:19.111Z,99440.00
2018-11-12T01:12:48.377Z,99436.00
2018-11-12T01:15:18.681Z,99440.00
2018-11-12T01:17:47.913Z,99448.00
2018-11-12T01:20:17.630Z,99459.00
2018-11-12T01:22:47.143Z,99459.00
2018-11-12T01:25:16.387Z,99448.00
2018-11-12T01:27:45.986Z,99449.00
2018-11-12T01:30:16.345Z,99441.00
2018-11-12T01:32:45.689Z,99443.00
2018-11-12T01:35:15.973Z,99440.00
2018-11-12T01:37:45.199Z,99435.00
2018-11-12T01:40:15.035Z,99427.00
2018-11-12T01:42:44.523Z,99425.00
2018-11-12T01:45:17.204Z,99431.00
2018-11-12T01:47:47.516Z,99443.00
2018-11-12T01:50:17.151Z,99441.00
2018-11-12T01:52:46.907Z,99436.00
2018-11-12T01:55:17.016Z,99431.00
2018-11-12T01:57:46.282Z,99441.00
2018-11-12T02:00:22.475Z,99440.00
2018-11-12T02:02:52.754Z,99435.00
2018-11-12T02:05:21.892Z,99426.00
2018-11-12T02:07:51.045Z,99430.00
2018-11-12T02:10:20.604Z,99424.00
2018-11-12T02:12:49.747Z,99422.00
2018-11-12T02:15:20.352Z,99417.00
2018-11-12T02:17:50.109Z,99410.00
2018-11-12T02:20:20.731Z,99414.00
2018-11-12T02:22:50.438Z,99411.00
2018-11-12T02:25:20.000Z,99412.00
2018-11-12T02:27:49.022Z,99416.00
2018-11-12T02:30:23.809Z,99431.00
2018-11-12T02:32:52.900Z,99443.00
2018-11-12T02:35:22.024Z,99441.00
2018-11-12T02:37:51.108Z,99442.00
2018-11-12T02:40:20.205Z,99443.00
2018-11-12T02:42:49.193Z,99441.00
2018-11-12T02:45:18.461Z,99441.00
2018-11-12T02:47:47.631Z,99440.00
2018-11-12T02:50:17.794Z,99441.00
2018-11-12T02:52:46.874Z,99452.00
2018-11-12T02:55:16.445Z,99459.00
2018-11-12T02:57:46.404Z,99459.00
2018-11-12T03:00:21.116Z,99449.00
2018-11-12T03:02:50.325Z,99448.00
2018-11-12T03:05:21.565Z,99444.00
2018-11-12T03:07:50.700Z,99437.00
2018-11-12T03:10:21.142Z,99441.00
2018-11-12T03:12:50.272Z,99434.00
2018-11-12T03:15:20.195Z,99439.00
2018-11-12T03:17:50.078Z,99445.00
2018-11-12T03:20:20.244Z,99446.00
2018-11-12T03:22:49.502Z,99450.00
2018-11-12T03:25:19.748Z,99429.00
2018-11-12T03:27:49.557Z,99419.00
2018-11-12T03:30:22.264Z,99412.00
2018-11-12T03:32:52.364Z,99415.00
2018-11-12T03:35:21.571Z,99417.00
2018-11-12T03:37:51.406Z,99421.00
2018-11-12T03:40:22.981Z,99423.00
2018-11-12T03:42:53.080Z,99436.00
2018-11-12T03:45:25.400Z,99425.00
2018-11-12T03:47:54.705Z,99413.00
2018-11-12T03:50:25.077Z,99418.00
2018-11-12T03:52:54.245Z,99427.00
2018-11-12T03:55:24.172Z,99427.00
2018-11-12T03:57:53.377Z,99419.00
2018-11-12T04:00:26.981Z,99414.00
2018-11-12T04:02:56.084Z,99408.00
2018-11-12T04:05:25.609Z,99406.00
2018-11-12T04:07:55.507Z,99397.00
2018-11-12T04:10:24.688Z,99397.00
2018-11-12T04:12:53.936Z,99400.00
2018-11-12T04:15:24.349Z,99400.00
2018-11-12T04:17:53.547Z,99386.00
2018-11-12T04:20:23.891Z,99384.00
2018-11-12T04:23:01.821Z,99392.00
2018-11-12T04:25:31.861Z,99392.00
2018-11-12T04:28:01.499Z,99384.00
2018-11-12T04:30:31.408Z,99383.00
2018-11-12T04:33:00.584Z,99388.00
2018-11-12T04:35:29.745Z,99401.00
2018-11-12T04:37:58.862Z,99392.00
2018-11-12T04:40:28.541Z,99380.00
2018-11-12T04:42:57.765Z,99378.00
2018-11-12T04:45:27.182Z,99384.00
2018-11-12T04:47:56.411Z,99391.00
2018-11-12T04:50:26.883Z,99393.00
2018-11-12T04:52:56.492Z,99395.00
2018-11-12T04:55:26.346Z,99385.00
2018-11-12T04:57:55.832Z,99387.00
2018-11-12T05:00:26.335Z,99386.00
2018-11-12T05:02:56.045Z,99384.00
2018-11-12T05:05:26.460Z,99387.00
2018-11-12T05:07:56.454Z,99376.00
2018-11-12T05:10:26.786Z,99372.00
2018-11-12T05:12:56.457Z,99382.00
2018-11-12T05:15:26.241Z,99377.00
2018-11-12T05:17:55.571Z,99376.00
2018-11-12T05:20:28.455Z,99376.00
2018-11-12T05:22:58.283Z,99378.00
2018-11-12T05:25:27.888Z,99383.00
2018-11-12T05:27:57.938Z,99382.00
2018-11-12T05:30:28.460Z,99383.00
2018-11-12T05:32:58.676Z,99376.00
2018-11-12T05:35:29.898Z,99375.00
2018-11-12T05:37:59.175Z,99381.00
2018-11-12T05:40:30.138Z,99381.00
2018-11-12T05:42:59.505Z,99376.00
2018-11-12T05:45:30.007Z,99378.00
2018-11-12T05:48:00.148Z,99381.00
2018-11-12T05:50:31.232Z,99381.00
2018-11-12T05:53:02.752Z,99388.00
2018-11-12T05:55:33.584Z,99400.00
2018-11-12T05:58:04.649Z,99401.00
2018-11-12T06:00:36.058Z,99406.00
2018-11-12T06:03:06.258Z,99406.00
2018-11-12T06:05:36.701Z,99410.00
2018-11-12T06:08:06.925Z,99412.00
2018-11-12T06:10:36.919Z,99412.00
2018-11-12T06:13:07.872Z,99403.00
2018-11-12T06:15:39.884Z,99395.00
2018-11-12T06:18:09.965Z,99391.00
2018-11-12T06:20:40.084Z,99391.00
2018-11-12T06:23:10.795Z,99388.00
2018-11-12T06:25:41.542Z,99387.00
2018-11-12T06:28:11.576Z,99385.00
2018-11-12T06:30:41.984Z,99377.00
2018-11-12T06:33:18.836Z,99386.00
2018-11-12T06:35:49.443Z,99385.00
2018-11-12T06:38:19.831Z,99384.00
2018-11-12T06:40:49.774Z,99382.00
2018-11-12T06:43:19.886Z,99376.00
2018-11-12T06:45:52.198Z,99371.00
2018-11-12T06:48:25.067Z,99366.00
2018-11-12T06:50:59.195Z,99364.00
2018-11-12T06:53:35.143Z,99363.00
2018-11-12T06:56:06.232Z,99360.00
2018-11-12T06:58:38.252Z,99367.00
2018-11-12T07:01:12.969Z,99357.00
2018-11-12T07:03:45.339Z,99355.00
2018-11-12T07:06:19.711Z,99356.00
2018-11-12T07:08:50.585Z,99355.00
2018-11-12T07:11:20.014Z,99337.00
2018-11-12T07:13:51.025Z,99341.00
2018-11-12T07:16:21.045Z,99337.00
2018-11-12T07:18:51.075Z,99337.00
2018-11-12T07:21:23.065Z,99353.00
2018-11-12T07:23:52.655Z,99348.00
2018-11-12T07:26:22.354Z,99349.00
2018-11-12T07:28:52.176Z,99345.00
2018-11-12T07:31:21.525Z,99353.00
2018-11-12T07:33:51.258Z,99348.00
2018-11-12T07:36:20.811Z,99348.00
2018-11-12T07:38:50.224Z,99342.00
2018-11-12T07:41:19.954Z,99330.00
2018-11-12T07:43:49.718Z,99327.00
2018-11-12T07:46:19.499Z,99322.00
2018-11-12T07:48:50.117Z,99323.00
2018-11-12T07:51:20.112Z,99326.00
2018-11-12T07:53:51.083Z,99326.00
2018-11-12T07:56:20.591Z,99324.00
2018-11-12T07:58:50.056Z,99328.00
2018-11-12T08:01:24.482Z,99317.00
2018-11-12T08:03:53.651Z,99310.00
2018-11-12T08:06:23.611Z,99305.00
2018-11-12T08:08:52.797Z,99311.00
2018-11-12T08:11:22.810Z,99308.00
2018-11-12T08:13:52.772Z,99305.00
2018-11-12T08:16:23.091Z,99301.00
2018-11-12T08:18:53.132Z,99308.00
2018-11-12T08:21:22.435Z,99311.00
2018-11-12T08:23:52.914Z,99301.00
2018-11-12T08:26:22.960Z,99304.00
2018-11-12T08:28:52.218Z,99297.00
2018-11-12T08:31:22.235Z,99306.00
2018-11-12T08:33:51.402Z,99306.00
2018-11-12T08:36:20.815Z,99306.00
2018-11-12T08:38:51.412Z,99307.00
2018-11-12T08:41:20.818Z,99307.00
2018-11-12T08:43:51.462Z,99304.00
2018-11-12T08:46:23.013Z,99300.00
2018-11-12T08:48:53.032Z,99303.00
2018-11-12T08:51:24.054Z,99307.00
2018-11-12T08:53:54.425Z,99310.00
2018-11-12T08:56:26.168Z,99300.00
2018-11-12T08:58:55.967Z,99302.00
2018-11-12T09:01:25.816Z,99295.00
2018-11-12T09:03:57.600Z,99296.00
2018-11-12T09:06:27.122Z,99294.00
2018-11-12T09:08:56.979Z,99301.00
2018-11-12T09:11:26.375Z,99308.00
2018-11-12T09:18:59.564Z,99320.00
2018-11-12T09:21:29.746Z,99324.00
2018-11-12T09:23:59.664Z,99327.00
2018-11-12T09:26:28.939Z,99324.00
2018-11-12T09:28:59.762Z,99323.00
2018-11-12T09:31:29.183Z,99318.00
2018-11-12T09:36:27.622Z,99301.00
2018-11-12T09:41:27.192Z,99321.00
2018-11-12T09:43:57.100Z,99316.00
2018-11-12T09:46:27.665Z,99324.00
2018-11-12T09:48:58.450Z,99333.00
2018-11-12T09:51:28.798Z,99333.00
2018-11-12T09:53:58.377Z,99331.00
2018-11-12T09:56:28.527Z,99323.00
2018-11-12T09:58:59.092Z,99326.00
2018-11-12T10:01:29.268Z,99332.00
2018-11-12T10:04:00.858Z,99323.00
2018-11-12T10:06:31.540Z,99318.00
2018-11-12T10:09:02.259Z,99320.00
2018-11-12T10:11:31.775Z,99326.00
2018-11-12T10:14:01.822Z,99319.00
2018-11-12T10:16:31.255Z,99324.00
2018-11-12T10:18:59.769Z,99327.00
2018-11-12T10:21:30.672Z,99329.00
2018-11-12T10:24:02.552Z,99340.00
2018-11-12T10:26:33.195Z,99337.00
2018-11-12T10:29:02.635Z,99337.00
2018-11-12T10:31:32.228Z,99355.00
2018-11-12T10:34:09.874Z,99353.00
2018-11-12T10:36:39.934Z,99358.00
2018-11-12T10:39:10.416Z,99353.00
2018-11-12T10:41:41.011Z,99363.00
2018-11-12T10:44:11.674Z,99365.00
2018-11-12T10:46:43.516Z,99376.00
2018-11-12T10:49:14.883Z,99368.00
2018-11-12T10:51:45.515Z,99361.00
2018-11-12T10:54:16.891Z,99359.00
2018-11-12T10:56:48.014Z,99364.00
2018-11-12T10:59:19.705Z,99361.00
2018-11-12T11:01:55.545Z,99360.00
2018-11-12T11:04:29.130Z,99363.00
2018-11-12T11:06:59.250Z,99355.00
2018-11-12T11:09:28.858Z,99350.00
2018-11-12T11:11:59.645Z,99353.00
2018-11-12T11:14:29.815Z,99348.00
2018-11-12T11:17:00.229Z,99336.00
2018-11-12T11:19:32.016Z,99352.00
2018-11-12T11:22:01.819Z,99366.00
2018-11-12T11:24:34.088Z,99374.00
2018-11-12T11:27:04.055Z,99371.00
2018-11-12T11:29:33.451Z,99363.00
2018-11-12T11:32:03.522Z,99375.00
2018-11-12T11:34:35.395Z,99370.00
2018-11-12T11:37:06.087Z,99370.00
2018-11-12T11:39:36.538Z,99371.00
2018-11-12T11:42:08.655Z,99379.00
2018-11-12T11:44:38.892Z,99382.00
2018-11-12T11:47:11.295Z,99370.00
2018-11-12T11:49:42.904Z,99369.00
2018-11-12T11:52:12.542Z,99372.00
2018-11-12T11:54:42.413Z,99384.00
2018-11-12T11:57:15.007Z,99386.00
2018-11-12T11:59:45.448Z,99385.00
2018-11-12T12:02:15.532Z,99382.00
2018-11-12T12:04:45.670Z,99387.00
2018-11-12T12:07:18.545Z,99392.00
2018-11-12T12:09:49.760Z,99395.00
2018-11-12T12:12:19.257Z,99400.00
2018-11-12T12:14:48.999Z,99406.00
2018-11-12T12:17:19.445Z,99406.00
2018-11-12T12:19:48.689Z,99434.00
2018-11-12T12:22:18.473Z,99428.00
2018-11-12T12:24:48.270Z,99454.00
2018-11-12T12:27:17.917Z,99437.00
2018-11-12T12:29:51.379Z,99468.00
2018-11-12T12:32:20.593Z,99463.00
2018-11-12T12:34:50.884Z,99472.00
2018-11-12T12:37:20.223Z,99477.00
2018-11-12T12:39:49.902Z,99489.00
2018-11-12T12:42:21.128Z,99495.00
2018-11-12T12:44:54.319Z,99498.00
2018-11-12T12:47:23.834Z,99491.00
2018-11-12T12:49:53.187Z,99502.00
2018-11-12T12:52:23.088Z,99512.00
2018-11-12T12:54:52.360Z,99509.00
2018-11-12T12:57:21.495Z,99513.00
2018-11-12T12:59:51.580Z,99525.00
2018-11-12T13:02:21.455Z,99528.00
2018-11-12T13:04:53.685Z,99530.00
2018-11-12T13:07:20.228Z,99536.00
2018-11-12T13:09:50.415Z,99526.00
2018-11-12T13:12:20.382Z,99540.00
2018-11-12T13:14:50.795Z,99537.00
2018-11-12T13:17:20.607Z,99558.00
2018-11-12T13:19:50.786Z,99554.00
2018-11-12T13:22:20.472Z,99543.00
2018-11-12T13:24:52.297Z,99544.00
2018-11-12T13:27:24.059Z,99537.00
2018-11-12T13:29:54.179Z,99540.00
2018-11-12T13:32:24.558Z,99541.00
2018-11-12T13:34:54.840Z,99543.00
2018-11-12T13:37:25.118Z,99542.00
2018-11-12T13:39:55.416Z,99539.00
2018-11-12T13:42:25.135Z,99539.00
2018-11-12T13:44:55.388Z,99543.00
2018-11-12T13:47:24.654Z,99543.00
2018-11-12T13:49:55.202Z,99545.00
2018-11-12T13:52:25.544Z,99545.00
2018-11-12T13:54:56.172Z,99544.00
2018-11-12T13:57:26.250Z,99546.00
2018-11-12T13:59:56.709Z,99541.00
2018-11-12T14:02:27.163Z,99544.00
2018-11-12T14:04:58.702Z,99544.00
2018-11-12T14:07:30.959Z,99546.00
2018-11-12T14:10:00.625Z,99550.00
2018-11-12T14:12:30.237Z,99556.00
2018-11-12T14:15:00.687Z,99555.00
2018-11-12T14:17:29.830Z,99557.00
2018-11-12T14:19:59.854Z,99556.00
2018-11-12T14:22:29.468Z,99562.00
2018-11-12T14:24:58.735Z,99561.00
2018-11-12T14:27:28.331Z,99562.00
2018-11-12T14:29:59.240Z,99565.00
2018-11-12T14:32:29.479Z,99570.00
2018-11-12T14:34:59.730Z,99570.00
2018-11-12T14:37:30.035Z,99576.00
2018-11-12T14:40:01.176Z,99582.00
2018-11-12T14:42:37.223Z,99588.00
2018-11-12T14:45:10.894Z,99595.00
2018-11-12T14:47:42.656Z,99595.00
2018-11-12T14:50:12.432Z,99600.00
2018-11-12T14:52:42.637Z,99606.00
2018-11-12T14:55:15.865Z,99608.00
2018-11-12T14:57:45.973Z,99604.00
2018-11-12T15:00:21.502Z,99614.00
2018-11-12T15:02:52.200Z,99617.00
2018-11-12T15:05:26.213Z,99621.00
2018-11-12T15:07:56.200Z,99622.00
2018-11-12T15:10:27.704Z,99625.00
2018-11-12T15:12:59.058Z,99625.00
2018-11-12T15:15:29.070Z,99624.00
2018-11-12T15:18:00.263Z,99618.00
2018-11-12T15:20:30.169Z,99617.00
2018-11-12T15:22:59.768Z,99626.00
2018-11-12T15:25:30.075Z,99633.00
2018-11-12T15:28:00.323Z,99637.00
2018-11-12T15:30:30.277Z,99638.00
2018-11-12T15:33:00.940Z,99646.00
2018-11-12T15:35:30.525Z,99647.00
2018-11-12T15:38:00.236Z,99639.00
2018-11-12T15:40:30.395Z,99639.00
2018-11-12T15:43:00.660Z,99639.00
2018-11-12T15:45:32.361Z,99656.00
2018-11-12T15:48:05.660Z,99664.00
2018-11-12T15:50:37.521Z,99662.00
2018-11-12T15:53:08.202Z,99670.00
2018-11-12T15:55:39.030Z,99681.00
2018-11-12T15:58:09.843Z,99701.00
2018-11-12T16:00:39.722Z,99702.00
2018-11-12T16:03:09.639Z,99712.00
2018-11-12T16:05:43.033Z,99719.00
2018-11-12T16:08:14.663Z,99711.00
2018-11-12T16:10:46.143Z,99711.00
2018-11-12T16:13:16.853Z,99725.00
2018-11-12T16:15:46.783Z,99744.00
2018-11-12T16:18:17.553Z,99747.00
2018-11-12T16:20:47.877Z,99749.00
2018-11-12T16:23:17.541Z,99756.00
2018-11-12T16:25:47.008Z,99764.00
2018-11-12T16:28:17.464Z,99767.00
2018-11-12T16:30:48.778Z,99763.00
2018-11-12T16:33:19.501Z,99762.00
2018-11-12T16:35:49.779Z,99753.00
2018-11-12T16:38:19.819Z,99746.00
2018-11-12T16:40:49.117Z,99754.00
2018-11-12T16:43:20.407Z,99774.00
2018-11-12T16:45:51.374Z,99784.00
2018-11-12T16:48:37.217Z,99793.00
2018-11-12T16:51:07.853Z,99814.00
2018-11-12T16:53:38.632Z,99812.00
2018-11-12T16:56:11.201Z,99812.00
2018-11-12T16:58:42.487Z,99792.00
2018-11-12T17:01:17.506Z,99793.00
2018-11-12T17:03:50.144Z,99816.00
2018-11-12T17:06:21.225Z,99837.00
2018-11-12T17:08:52.588Z,99830.00
2018-11-12T17:11:23.342Z,99838.00
2018-11-12T17:13:56.202Z,99836.00
2018-11-12T17:16:26.707Z,99847.00
2018-11-12T17:19:05.119Z,99849.00
2018-11-12T17:24:41.631Z,99865.00
2018-11-12T17:27:11.091Z,99867.00
2018-11-12T17:29:40.544Z,99882.00
2018-11-12T17:32:10.627Z,99890.00
2018-11-12T17:34:39.840Z,99879.00
2018-11-12T17:37:09.451Z,99880.00
2018-11-12T17:39:39.920Z,99886.00
2018-11-12T17:42:10.891Z,99902.00
2018-11-12T17:44:40.393Z,99909.00
2018-11-12T17:47:09.709Z,99909.00
2018-11-12T17:49:38.820Z,99896.00
2018-11-12T17:52:07.886Z,99913.00
2018-11-12T17:54:37.107Z,99901.00
2018-11-12T17:57:06.280Z,99898.00
2018-11-12T17:59:35.325Z,99897.00
2018-11-12T18:02:04.368Z,99879.00
2018-11-12T18:04:33.503Z,99887.00
2018-11-12T18:07:02.963Z,99909.00
2018-11-12T18:09:32.000Z,99912.00
2018-11-12T18:12:01.085Z,99921.00
2018-11-12T18:14:30.214Z,99921.00
2018-11-12T18:16:59.257Z,99916.00
2018-11-12T18:19:28.356Z,99928.00
2018-11-12T18:21:57.477Z,99928.00
2018-11-12T18:24:26.459Z,99932.00
2018-11-12T18:26:55.485Z,99944.00
2018-11-12T18:29:24.603Z,99956.00
2018-11-12T18:31:53.923Z,99949.00
2018-11-12T18:34:22.793Z,99925.00
2018-11-12T18:36:51.840Z,99916.00
2018-11-12T18:39:20.883Z,99917.00
2018-11-12T18:41:50.950Z,99934.00
2018-11-12T18:44:20.064Z,99947.00
2018-11-12T18:46:49.296Z,99950.00
2018-11-12T18:49:18.333Z,99950.00
2018-11-12T18:51:47.350Z,99951.00
2018-11-12T18:54:16.451Z,99955.00
2018-11-12T18:56:45.538Z,99952.00
2018-11-12T18:59:14.717Z,99940.00
2018-11-12T19:01:43.862Z,99937.00
2018-11-12T19:04:12.959Z,99930.00
2018-11-12T19:06:42.104Z,99921.00
2018-11-12T19:09:12.294Z,99933.00
2018-11-12T19:11:41.911Z,99943.00
2018-11-12T19:14:11.815Z,99966.00
2018-11-12T19:16:41.819Z,99991.00
2018-11-12T19:19:11.024Z,99996.00
2018-11-12T19:21:40.052Z,100001.00
2018-11-12T19:24:09.103Z,99991.00
2018-11-12T19:26:38.208Z,99990.00
2018-11-12T19:29:07.304Z,99990.00
2018-11-12T19:31:36.425Z,100003.00
2018-11-12T19:34:06.503Z,100012.00
2018-11-12T19:36:36.249Z,100011.00
2018-11-12T19:39:07.517Z,100001.00
2018-11-12T19:41:36.718Z,99999.00
2018-11-12T19:44:06.054Z,99996.00
2018-11-12T19:46:35.179Z,100000.00
2018-11-12T19:49:04.288Z,99994.00
2018-11-12T19:51:33.453Z,99997.00
2018-11-12T19:54:02.775Z,99992.00
2018-11-12T19:56:31.870Z,99997.00
2018-11-12T19:59:01.195Z,99990.00
2018-11-12T20:01:30.213Z,99992.00
2018-11-12T20:03:59.337Z,99986.00
2018-11-12T20:06:28.402Z,99985.00
2018-11-12T20:08:57.485Z,99996.00
2018-11-12T20:11:26.484Z,99987.00
2018-11-12T20:13:55.617Z,99981.00
2018-11-12T20:16:24.772Z,99983.00
2018-11-12T20:18:53.790Z,99987.00
2018-11-12T20:21:22.824Z,99995.00
2018-11-12T20:23:51.831Z,99990.00
2018-11-12T20:26:21.941Z,99991.00
2018-11-12T20:28:50.971Z,100001.00
2018-11-12T20:31:20.062Z,99993.00
2018-11-12T20:33:49.058Z,99992.00
2018-11-12T20:36:19.203Z,99994.00
2018-11-12T20:38:48.259Z,100013.00
2018-11-12T20:41:17.310Z,100021.00
2018-11-12T20:43:46.454Z,100030.00
2018-11-12T20:46:15.800Z,100028.00
2018-11-12T20:48:44.826Z,100032.00
2018-11-12T20:51:13.925Z,100024.00
2018-11-12T20:53:43.053Z,100021.00
2018-11-12T20:56:12.461Z,100016.00
2018-11-12T20:58:41.476Z,100016.00
2018-11-12T21:01:10.594Z,100019.00
2018-11-12T21:03:39.637Z,100020.00
2018-11-12T21:06:09.088Z,100014.00
2018-11-12T21:08:38.148Z,100013.00
2018-11-12T21:11:07.194Z,100016.00
2018-11-12T21:13:37.346Z,100016.00
2018-11-12T21:16:06.454Z,100021.00
2018-11-12T21:18:35.516Z,100028.00
2018-11-12T21:21:04.687Z,100028.00
2018-11-12T21:23:34.610Z,100030.00
2018-11-12T21:26:03.596Z,100029.00
2018-11-12T21:28:32.591Z,100041.00
2018-11-12T21:31:01.600Z,100041.00
2018-11-12T21:33:30.657Z,100050.00
2018-11-12T21:36:00.897Z,100053.00
2018-11-12T21:38:29.960Z,100042.00
2018-11-12T21:40:58.976Z,100048.00
2018-11-12T21:43:28.267Z,100045.00
2018-11-12T21:45:57.193Z,100033.00
2018-11-12T21:48:26.219Z,100025.00
2018-11-12T21:50:55.233Z,100020.00
2018-11-12T21:53:24.470Z,100027.00
2018-11-12T21:55:53.528Z,100032.00
2018-11-12T21:58:22.562Z,100039.00
2018-11-12T22:00:51.557Z,100054.00
2018-11-12T22:03:20.571Z,100067.00
2018-11-12T22:05:49.663Z,100068.00
2018-11-12T22:08:18.899Z,100074.00
2018-11-12T22:10:47.920Z,100080.00
2018-11-12T22:13:17.024Z,100080.00
2018-11-12T22:15:46.055Z,100086.00
2018-11-12T22:18:15.166Z,100085.00
2018-11-12T22:20:44.213Z,100089.00
2018-11-12T22:23:13.251Z,100097.00
2018-11-12T22:25:42.465Z,100099.00
2018-11-12T22:28:11.621Z,100090.00
2018-11-12T22:30:40.655Z,100075.00
2018-11-12T22:33:09.715Z,100074.00
2018-11-12T22:35:38.820Z,100072.00
2018-11-12T22:38:08.448Z,100074.00
2018-11-12T22:40:37.560Z,100079.00
2018-11-12T22:43:06.661Z,100085.00
2018-11-12T22:45:35.995Z,100078.00
2018-11-12T22:48:05.584Z,100070.00
2018-11-12T22:50:34.640Z,100081.00
2018-11-12T22:53:03.703Z,100080.00
2018-11-12T22:55:32.798Z,100076.00
2018-11-12T22:58:01.964Z,100075.00
2018-11-12T23:00:35.155Z,100074.00
2018-11-12T23:03:04.220Z,100074.00
2018-11-12T23:05:33.254Z,100075.00
2018-11-12T23:08:02.389Z,100071.00
2018-11-12T23:10:31.453Z,100073.00
2018-11-12T23:13:00.476Z,100070.00
2018-11-12T23:15:29.531Z,100066.00
2018-11-12T23:17:58.518Z,100073.00
2018-11-12T23:20:28.577Z,100066.00
2018-11-12T23:22:57.587Z,100067.00
2018-11-12T23:25:26.637Z,100079.00
2018-11-12T23:27:55.685Z,100098.00
2018-11-12T23:30:25.480Z,100101.00
2018-11-12T23:32:54.529Z,100114.00
2018-11-12T23:35:24.988Z,100118.00
2018-11-12T23:37:54.016Z,100115.00
2018-11-12T23:40:23.116Z,100115.00
2018-11-12T23:42:52.116Z,100098.00
2018-11-12T23:45:21.142Z,100089.00
2018-11-12T23:47:50.124Z,100083.00
2018-11-12T23:50:20.401Z,100077.00
2018-11-12T23:52:50.208Z,100087.00
2018-11-12T23:55:19.677Z,100090.00
2018-11-12T23:57:49.403Z,100083.00
